sensor_id;sensor_type;location;lat;lon;timestamp;P1;durP1;ratioP1;P2;durP2;ratioP2
17201;SDS011;8717;53.588;10.176;2022-10-17T00:00:52;7.40;;;2.50;;
17201;SDS011;8717;53.588;10.176;2022-10-17T00:03:21;6.53;;;2.30;;
17201;SDS011;8717;53.588;10.176;2022-10-17T00:05:50;3.87;;;2.00;;
17201;SDS011;8717;53.588;10.176;2022-10-17T00:08:17;6.93;;;2.73;;
17201;SDS011;8717;53.588;10.176;2022-10-17T00:10:54;4.10;;;1.93;;
17201;SDS011;8717;53.588;10.176;2022-10-17T00:13:22;6.00;;;2.20;;
17201;SDS011;8717;53.588;10.176;2022-10-17T00:15:53;7.03;;;2.07;;
17201;SDS011;8717;53.588;10.176;2022-10-17T00:18:20;8.33;;;2.10;;
17201;SDS011;8717;53.588;10.176;2022-10-17T00:20:55;4.30;;;1.70;;
17201;SDS011;8717;53.588;10.176;2022-10-17T00:23:22;3.60;;;2.00;;
17201;SDS011;8717;53.588;10.176;2022-10-17T00:25:56;5.83;;;1.90;;
17201;SDS011;8717;53.588;10.176;2022-10-17T00:28:29;4.57;;;2.00;;
17201;SDS011;8717;53.588;10.176;2022-10-17T00:30:57;4.87;;;1.97;;
17201;SDS011;8717;53.588;10.176;2022-10-17T00:33:28;7.37;;;2.03;;
17201;SDS011;8717;53.588;10.176;2022-10-17T00:36:04;3.97;;;2.20;;
17201;SDS011;8717;53.588;10.176;2022-10-17T00:38:33;6.70;;;2.60;;
17201;SDS011;8717;53.588;10.176;2022-10-17T00:41:01;7.60;;;2.30;;
17201;SDS011;8717;53.588;10.176;2022-10-17T00:43:28;5.23;;;2.13;;
17201;SDS011;8717;53.588;10.176;2022-10-17T00:46:13;6.80;;;1.77;;
17201;SDS011;8717;53.588;10.176;2022-10-17T00:48:40;4.87;;;2.10;;
17201;SDS011;8717;53.588;10.176;2022-10-17T00:51:08;5.53;;;2.17;;
17201;SDS011;8717;53.588;10.176;2022-10-17T00:53:35;6.27;;;2.70;;
17201;SDS011;8717;53.588;10.176;2022-10-17T00:56:03;4.20;;;1.83;;
17201;SDS011;8717;53.588;10.176;2022-10-17T00:58:33;5.33;;;2.17;;
17201;SDS011;8717;53.588;10.176;2022-10-17T01:01:00;3.17;;;1.77;;
17201;SDS011;8717;53.588;10.176;2022-10-17T01:03:28;6.33;;;2.00;;
17201;SDS011;8717;53.588;10.176;2022-10-17T01:05:55;4.80;;;1.80;;
17201;SDS011;8717;53.588;10.176;2022-10-17T01:08:23;4.87;;;1.73;;
17201;SDS011;8717;53.588;10.176;2022-10-17T01:10:52;3.13;;;2.20;;
17201;SDS011;8717;53.588;10.176;2022-10-17T01:13:31;6.10;;;2.23;;
17201;SDS011;8717;53.588;10.176;2022-10-17T01:16:10;3.63;;;1.83;;
17201;SDS011;8717;53.588;10.176;2022-10-17T01:18:47;3.93;;;2.33;;
17201;SDS011;8717;53.588;10.176;2022-10-17T01:21:33;4.20;;;1.90;;
17201;SDS011;8717;53.588;10.176;2022-10-17T01:27:23;5.37;;;2.23;;
17201;SDS011;8717;53.588;10.176;2022-10-17T01:30:03;6.17;;;1.87;;
17201;SDS011;8717;53.588;10.176;2022-10-17T01:32:52;4.43;;;2.00;;
17201;SDS011;8717;53.588;10.176;2022-10-17T01:35:22;4.53;;;2.00;;
17201;SDS011;8717;53.588;10.176;2022-10-17T01:37:54;4.63;;;2.20;;
17201;SDS011;8717;53.588;10.176;2022-10-17T01:40:32;5.80;;;2.60;;
17201;SDS011;8717;53.588;10.176;2022-10-17T01:43:06;4.63;;;2.37;;
17201;SDS011;8717;53.588;10.176;2022-10-17T01:45:42;6.50;;;2.13;;
17201;SDS011;8717;53.588;10.176;2022-10-17T01:48:16;4.33;;;2.10;;
17201;SDS011;8717;53.588;10.176;2022-10-17T01:50:47;4.03;;;2.73;;
17201;SDS011;8717;53.588;10.176;2022-10-17T01:53:18;5.33;;;2.50;;
17201;SDS011;8717;53.588;10.176;2022-10-17T01:55:49;8.03;;;3.70;;
17201;SDS011;8717;53.588;10.176;2022-10-17T01:58:19;3.87;;;2.90;;
17201;SDS011;8717;53.588;10.176;2022-10-17T02:00:50;5.53;;;2.67;;
17201;SDS011;8717;53.588;10.176;2022-10-17T02:03:21;6.03;;;2.90;;
17201;SDS011;8717;53.588;10.176;2022-10-17T02:05:49;3.23;;;2.90;;
17201;SDS011;8717;53.588;10.176;2022-10-17T02:08:23;6.50;;;3.87;;
17201;SDS011;8717;53.588;10.176;2022-10-17T02:10:52;7.73;;;3.23;;
17201;SDS011;8717;53.588;10.176;2022-10-17T02:13:23;5.13;;;2.67;;
17201;SDS011;8717;53.588;10.176;2022-10-17T02:15:59;4.30;;;2.67;;
17201;SDS011;8717;53.588;10.176;2022-10-17T02:18:43;5.33;;;2.47;;
17201;SDS011;8717;53.588;10.176;2022-10-17T02:21:18;4.63;;;2.20;;
17201;SDS011;8717;53.588;10.176;2022-10-17T02:23:50;5.70;;;2.47;;
17201;SDS011;8717;53.588;10.176;2022-10-17T02:26:23;4.97;;;2.63;;
17201;SDS011;8717;53.588;10.176;2022-10-17T02:28:55;6.17;;;2.53;;
17201;SDS011;8717;53.588;10.176;2022-10-17T02:31:29;5.60;;;3.00;;
17201;SDS011;8717;53.588;10.176;2022-10-17T02:34:04;5.93;;;3.43;;
17201;SDS011;8717;53.588;10.176;2022-10-17T02:36:35;6.03;;;3.20;;
17201;SDS011;8717;53.588;10.176;2022-10-17T02:39:05;6.73;;;2.73;;
17201;SDS011;8717;53.588;10.176;2022-10-17T02:41:34;5.83;;;3.47;;
17201;SDS011;8717;53.588;10.176;2022-10-17T02:44:04;3.80;;;2.70;;
17201;SDS011;8717;53.588;10.176;2022-10-17T02:46:31;3.57;;;2.77;;
17201;SDS011;8717;53.588;10.176;2022-10-17T02:49:00;4.43;;;2.37;;
17201;SDS011;8717;53.588;10.176;2022-10-17T02:51:34;3.23;;;2.40;;
17201;SDS011;8717;53.588;10.176;2022-10-17T02:54:08;5.17;;;2.50;;
17201;SDS011;8717;53.588;10.176;2022-10-17T02:56:43;5.37;;;2.70;;
17201;SDS011;8717;53.588;10.176;2022-10-17T02:59:16;2.33;;;2.10;;
17201;SDS011;8717;53.588;10.176;2022-10-17T03:01:45;4.83;;;2.60;;
17201;SDS011;8717;53.588;10.176;2022-10-17T03:04:13;6.17;;;2.63;;
17201;SDS011;8717;53.588;10.176;2022-10-17T03:06:42;4.93;;;2.20;;
17201;SDS011;8717;53.588;10.176;2022-10-17T03:09:11;5.80;;;2.30;;
17201;SDS011;8717;53.588;10.176;2022-10-17T03:11:39;3.33;;;2.60;;
17201;SDS011;8717;53.588;10.176;2022-10-17T03:14:07;4.30;;;2.10;;
17201;SDS011;8717;53.588;10.176;2022-10-17T03:16:34;2.90;;;1.90;;
17201;SDS011;8717;53.588;10.176;2022-10-17T03:19:02;4.07;;;1.87;;
17201;SDS011;8717;53.588;10.176;2022-10-17T03:21:33;4.93;;;2.50;;
17201;SDS011;8717;53.588;10.176;2022-10-17T03:24:01;2.73;;;1.57;;
17201;SDS011;8717;53.588;10.176;2022-10-17T03:26:28;4.30;;;1.87;;
17201;SDS011;8717;53.588;10.176;2022-10-17T03:28:56;3.13;;;1.87;;
17201;SDS011;8717;53.588;10.176;2022-10-17T03:31:24;3.03;;;2.03;;
17201;SDS011;8717;53.588;10.176;2022-10-17T03:33:51;3.07;;;1.90;;
17201;SDS011;8717;53.588;10.176;2022-10-17T03:36:19;2.83;;;1.67;;
17201;SDS011;8717;53.588;10.176;2022-10-17T03:38:46;1.90;;;1.70;;
17201;SDS011;8717;53.588;10.176;2022-10-17T03:41:17;4.00;;;2.00;;
17201;SDS011;8717;53.588;10.176;2022-10-17T03:43:44;1.90;;;1.50;;
17201;SDS011;8717;53.588;10.176;2022-10-17T03:46:11;3.87;;;2.57;;
17201;SDS011;8717;53.588;10.176;2022-10-17T03:48:38;2.50;;;1.93;;
17201;SDS011;8717;53.588;10.176;2022-10-17T03:51:06;2.80;;;1.80;;
17201;SDS011;8717;53.588;10.176;2022-10-17T03:53:40;2.77;;;2.00;;
17201;SDS011;8717;53.588;10.176;2022-10-17T03:56:08;2.73;;;1.63;;
17201;SDS011;8717;53.588;10.176;2022-10-17T03:58:37;3.40;;;1.80;;
17201;SDS011;8717;53.588;10.176;2022-10-17T04:01:04;2.93;;;1.80;;
17201;SDS011;8717;53.588;10.176;2022-10-17T04:03:31;1.93;;;1.50;;
17201;SDS011;8717;53.588;10.176;2022-10-17T04:05:59;2.07;;;1.80;;
17201;SDS011;8717;53.588;10.176;2022-10-17T04:08:27;1.83;;;1.57;;
17201;SDS011;8717;53.588;10.176;2022-10-17T04:11:05;5.97;;;2.10;;
17201;SDS011;8717;53.588;10.176;2022-10-17T04:13:33;2.67;;;1.90;;
17201;SDS011;8717;53.588;10.176;2022-10-17T04:16:02;3.60;;;1.93;;
17201;SDS011;8717;53.588;10.176;2022-10-17T04:18:31;3.87;;;2.27;;
17201;SDS011;8717;53.588;10.176;2022-10-17T04:20:59;6.37;;;1.90;;
17201;SDS011;8717;53.588;10.176;2022-10-17T04:23:26;4.67;;;2.10;;
17201;SDS011;8717;53.588;10.176;2022-10-17T04:25:59;6.90;;;2.40;;
17201;SDS011;8717;53.588;10.176;2022-10-17T04:28:27;3.70;;;1.90;;
17201;SDS011;8717;53.588;10.176;2022-10-17T04:30:55;3.27;;;1.90;;
17201;SDS011;8717;53.588;10.176;2022-10-17T04:33:24;4.40;;;2.30;;
17201;SDS011;8717;53.588;10.176;2022-10-17T04:35:55;2.43;;;2.00;;
17201;SDS011;8717;53.588;10.176;2022-10-17T04:38:22;5.47;;;2.27;;
17201;SDS011;8717;53.588;10.176;2022-10-17T04:40:49;4.40;;;2.30;;
17201;SDS011;8717;53.588;10.176;2022-10-17T04:43:16;2.87;;;2.20;;
17201;SDS011;8717;53.588;10.176;2022-10-17T04:45:44;2.60;;;1.70;;
17201;SDS011;8717;53.588;10.176;2022-10-17T04:48:10;2.23;;;1.90;;
17201;SDS011;8717;53.588;10.176;2022-10-17T04:50:39;3.77;;;2.03;;
17201;SDS011;8717;53.588;10.176;2022-10-17T04:53:26;4.83;;;2.13;;
17201;SDS011;8717;53.588;10.176;2022-10-17T04:55:53;3.87;;;1.90;;
17201;SDS011;8717;53.588;10.176;2022-10-17T04:58:20;3.43;;;2.10;;
17201;SDS011;8717;53.588;10.176;2022-10-17T05:00:48;4.10;;;2.20;;
17201;SDS011;8717;53.588;10.176;2022-10-17T05:03:20;2.80;;;2.27;;
17201;SDS011;8717;53.588;10.176;2022-10-17T05:05:48;4.20;;;2.20;;
17201;SDS011;8717;53.588;10.176;2022-10-17T05:08:15;2.97;;;2.50;;
17201;SDS011;8717;53.588;10.176;2022-10-17T05:10:43;4.80;;;2.30;;
17201;SDS011;8717;53.588;10.176;2022-10-17T05:13:12;4.83;;;2.40;;
17201;SDS011;8717;53.588;10.176;2022-10-17T05:15:39;2.20;;;2.00;;
17201;SDS011;8717;53.588;10.176;2022-10-17T05:18:06;4.90;;;2.73;;
17201;SDS011;8717;53.588;10.176;2022-10-17T05:20:34;3.23;;;2.07;;
17201;SDS011;8717;53.588;10.176;2022-10-17T05:23:02;2.20;;;2.00;;
17201;SDS011;8717;53.588;10.176;2022-10-17T05:25:33;3.37;;;2.30;;
17201;SDS011;8717;53.588;10.176;2022-10-17T05:28:00;3.33;;;2.10;;
17201;SDS011;8717;53.588;10.176;2022-10-17T05:30:27;4.70;;;2.10;;
17201;SDS011;8717;53.588;10.176;2022-10-17T05:32:58;2.53;;;2.03;;
17201;SDS011;8717;53.588;10.176;2022-10-17T05:35:24;3.03;;;2.37;;
17201;SDS011;8717;53.588;10.176;2022-10-17T05:37:51;2.50;;;2.30;;
17201;SDS011;8717;53.588;10.176;2022-10-17T05:40:21;2.67;;;2.00;;
17201;SDS011;8717;53.588;10.176;2022-10-17T05:42:56;2.40;;;2.20;;
17201;SDS011;8717;53.588;10.176;2022-10-17T05:45:23;5.27;;;2.53;;
17201;SDS011;8717;53.588;10.176;2022-10-17T05:47:50;4.50;;;2.73;;
17201;SDS011;8717;53.588;10.176;2022-10-17T05:50:17;7.03;;;2.50;;
17201;SDS011;8717;53.588;10.176;2022-10-17T05:53:08;2.40;;;2.20;;
17201;SDS011;8717;53.588;10.176;2022-10-17T05:55:42;2.60;;;2.40;;
17201;SDS011;8717;53.588;10.176;2022-10-17T05:58:09;4.33;;;1.97;;
17201;SDS011;8717;53.588;10.176;2022-10-17T06:00:40;3.40;;;2.13;;
17201;SDS011;8717;53.588;10.176;2022-10-17T06:03:07;5.37;;;2.37;;
17201;SDS011;8717;53.588;10.176;2022-10-17T06:05:36;3.53;;;2.20;;
17201;SDS011;8717;53.588;10.176;2022-10-17T06:08:03;4.20;;;2.13;;
17201;SDS011;8717;53.588;10.176;2022-10-17T06:10:33;3.87;;;2.23;;
17201;SDS011;8717;53.588;10.176;2022-10-17T06:13:01;4.10;;;2.33;;
17201;SDS011;8717;53.588;10.176;2022-10-17T06:15:28;4.70;;;2.23;;
17201;SDS011;8717;53.588;10.176;2022-10-17T06:18:00;2.87;;;2.17;;
17201;SDS011;8717;53.588;10.176;2022-10-17T06:20:27;3.23;;;1.97;;
17201;SDS011;8717;53.588;10.176;2022-10-17T06:22:53;3.33;;;2.20;;
17201;SDS011;8717;53.588;10.176;2022-10-17T06:25:34;2.83;;;2.30;;
17201;SDS011;8717;53.588;10.176;2022-10-17T06:28:02;2.77;;;2.20;;
17201;SDS011;8717;53.588;10.176;2022-10-17T06:30:29;6.23;;;2.57;;
17201;SDS011;8717;53.588;10.176;2022-10-17T06:32:56;5.07;;;2.50;;
17201;SDS011;8717;53.588;10.176;2022-10-17T06:35:23;4.17;;;2.30;;
17201;SDS011;8717;53.588;10.176;2022-10-17T06:37:50;4.73;;;2.37;;
17201;SDS011;8717;53.588;10.176;2022-10-17T06:40:17;2.43;;;2.23;;
17201;SDS011;8717;53.588;10.176;2022-10-17T06:42:44;2.60;;;2.40;;
17201;SDS011;8717;53.588;10.176;2022-10-17T06:45:30;4.50;;;2.40;;
17201;SDS011;8717;53.588;10.176;2022-10-17T06:48:23;5.30;;;2.27;;
17201;SDS011;8717;53.588;10.176;2022-10-17T06:51:06;2.50;;;2.30;;
17201;SDS011;8717;53.588;10.176;2022-10-17T06:53:45;6.07;;;2.40;;
17201;SDS011;8717;53.588;10.176;2022-10-17T06:56:31;3.13;;;2.30;;
17201;SDS011;8717;53.588;10.176;2022-10-17T06:59:07;2.97;;;2.50;;
17201;SDS011;8717;53.588;10.176;2022-10-17T07:01:37;3.40;;;2.50;;
17201;SDS011;8717;53.588;10.176;2022-10-17T07:04:04;4.57;;;2.33;;
17201;SDS011;8717;53.588;10.176;2022-10-17T07:06:32;3.67;;;2.50;;
17201;SDS011;8717;53.588;10.176;2022-10-17T07:09:05;4.03;;;2.20;;
17201;SDS011;8717;53.588;10.176;2022-10-17T07:11:34;4.00;;;2.73;;
17201;SDS011;8717;53.588;10.176;2022-10-17T07:14:04;4.00;;;2.53;;
17201;SDS011;8717;53.588;10.176;2022-10-17T07:16:45;4.40;;;2.60;;
17201;SDS011;8717;53.588;10.176;2022-10-17T07:19:19;3.37;;;2.57;;
17201;SDS011;8717;53.588;10.176;2022-10-17T07:21:46;4.20;;;2.47;;
17201;SDS011;8717;53.588;10.176;2022-10-17T07:24:13;6.20;;;3.10;;
17201;SDS011;8717;53.588;10.176;2022-10-17T07:26:44;3.90;;;2.93;;
17201;SDS011;8717;53.588;10.176;2022-10-17T07:29:11;9.17;;;2.73;;
17201;SDS011;8717;53.588;10.176;2022-10-17T07:31:43;3.10;;;2.73;;
17201;SDS011;8717;53.588;10.176;2022-10-17T07:34:12;2.87;;;2.40;;
17201;SDS011;8717;53.588;10.176;2022-10-17T07:36:39;4.03;;;2.20;;
17201;SDS011;8717;53.588;10.176;2022-10-17T07:39:07;5.30;;;2.30;;
17201;SDS011;8717;53.588;10.176;2022-10-17T07:41:36;2.60;;;2.13;;
17201;SDS011;8717;53.588;10.176;2022-10-17T07:44:03;3.87;;;2.60;;
17201;SDS011;8717;53.588;10.176;2022-10-17T07:46:34;3.80;;;2.40;;
17201;SDS011;8717;53.588;10.176;2022-10-17T07:49:02;2.53;;;2.33;;
17201;SDS011;8717;53.588;10.176;2022-10-17T07:51:29;4.43;;;2.53;;
17201;SDS011;8717;53.588;10.176;2022-10-17T07:53:56;3.47;;;2.07;;
17201;SDS011;8717;53.588;10.176;2022-10-17T07:56:22;2.77;;;2.50;;
17201;SDS011;8717;53.588;10.176;2022-10-17T07:58:49;5.00;;;2.33;;
17201;SDS011;8717;53.588;10.176;2022-10-17T08:01:16;2.57;;;2.37;;
17201;SDS011;8717;53.588;10.176;2022-10-17T08:03:43;3.97;;;2.57;;
17201;SDS011;8717;53.588;10.176;2022-10-17T08:06:14;3.40;;;2.30;;
17201;SDS011;8717;53.588;10.176;2022-10-17T08:08:40;4.17;;;2.27;;
17201;SDS011;8717;53.588;10.176;2022-10-17T08:11:09;4.77;;;2.10;;
17201;SDS011;8717;53.588;10.176;2022-10-17T08:13:37;4.03;;;2.80;;
17201;SDS011;8717;53.588;10.176;2022-10-17T08:16:05;7.13;;;2.40;;
17201;SDS011;8717;53.588;10.176;2022-10-17T08:18:33;6.63;;;2.33;;
17201;SDS011;8717;53.588;10.176;2022-10-17T08:21:00;8.07;;;2.40;;
17201;SDS011;8717;53.588;10.176;2022-10-17T08:23:31;3.53;;;2.20;;
17201;SDS011;8717;53.588;10.176;2022-10-17T08:25:58;4.77;;;2.30;;
17201;SDS011;8717;53.588;10.176;2022-10-17T08:28:25;3.37;;;2.07;;
17201;SDS011;8717;53.588;10.176;2022-10-17T08:30:52;2.43;;;2.23;;
17201;SDS011;8717;53.588;10.176;2022-10-17T08:33:26;4.60;;;2.43;;
17201;SDS011;8717;53.588;10.176;2022-10-17T08:35:53;4.17;;;2.20;;
17201;SDS011;8717;53.588;10.176;2022-10-17T08:38:19;5.60;;;2.33;;
17201;SDS011;8717;53.588;10.176;2022-10-17T08:40:48;2.93;;;2.13;;
17201;SDS011;8717;53.588;10.176;2022-10-17T08:43:18;4.50;;;2.27;;
17201;SDS011;8717;53.588;10.176;2022-10-17T08:45:54;4.83;;;1.97;;
17201;SDS011;8717;53.588;10.176;2022-10-17T08:48:27;2.57;;;2.13;;
17201;SDS011;8717;53.588;10.176;2022-10-17T08:50:58;4.13;;;2.10;;
17201;SDS011;8717;53.588;10.176;2022-10-17T08:53:32;4.13;;;2.10;;
17201;SDS011;8717;53.588;10.176;2022-10-17T08:56:04;3.90;;;2.33;;
17201;SDS011;8717;53.588;10.176;2022-10-17T08:58:36;2.63;;;2.07;;
17201;SDS011;8717;53.588;10.176;2022-10-17T09:01:04;3.00;;;2.20;;
17201;SDS011;8717;53.588;10.176;2022-10-17T09:03:41;2.87;;;2.50;;
17201;SDS011;8717;53.588;10.176;2022-10-17T09:06:17;3.20;;;2.53;;
17201;SDS011;8717;53.588;10.176;2022-10-17T09:08:50;4.07;;;2.20;;
17201;SDS011;8717;53.588;10.176;2022-10-17T09:11:35;2.57;;;2.00;;
17201;SDS011;8717;53.588;10.176;2022-10-17T09:14:15;3.90;;;2.20;;
17201;SDS011;8717;53.588;10.176;2022-10-17T09:16:56;3.80;;;2.07;;
17201;SDS011;8717;53.588;10.176;2022-10-17T09:19:32;4.37;;;2.30;;
17201;SDS011;8717;53.588;10.176;2022-10-17T09:22:02;3.97;;;2.00;;
17201;SDS011;8717;53.588;10.176;2022-10-17T09:24:36;3.70;;;1.80;;
17201;SDS011;8717;53.588;10.176;2022-10-17T09:27:09;2.57;;;2.00;;
17201;SDS011;8717;53.588;10.176;2022-10-17T09:29:44;3.93;;;2.03;;
17201;SDS011;8717;53.588;10.176;2022-10-17T09:32:14;3.13;;;1.90;;
17201;SDS011;8717;53.588;10.176;2022-10-17T09:34:44;3.53;;;2.10;;
17201;SDS011;8717;53.588;10.176;2022-10-17T09:37:11;2.77;;;2.07;;
17201;SDS011;8717;53.588;10.176;2022-10-17T09:39:40;3.13;;;2.00;;
17201;SDS011;8717;53.588;10.176;2022-10-17T09:42:11;3.33;;;1.90;;
17201;SDS011;8717;53.588;10.176;2022-10-17T09:44:40;5.37;;;2.10;;
17201;SDS011;8717;53.588;10.176;2022-10-17T09:47:16;5.27;;;2.37;;
17201;SDS011;8717;53.588;10.176;2022-10-17T09:49:53;4.87;;;1.80;;
17201;SDS011;8717;53.588;10.176;2022-10-17T09:52:21;3.03;;;2.13;;
17201;SDS011;8717;53.588;10.176;2022-10-17T09:54:53;3.57;;;2.17;;
17201;SDS011;8717;53.588;10.176;2022-10-17T09:57:25;2.30;;;1.98;;
17201;SDS011;8717;53.588;10.176;2022-10-17T09:59:56;3.67;;;1.83;;
17201;SDS011;8717;53.588;10.176;2022-10-17T10:02:25;3.03;;;1.90;;
17201;SDS011;8717;53.588;10.176;2022-10-17T10:04:53;2.87;;;2.17;;
17201;SDS011;8717;53.588;10.176;2022-10-17T10:07:22;4.38;;;2.20;;
17201;SDS011;8717;53.588;10.176;2022-10-17T10:09:49;3.10;;;1.90;;
17201;SDS011;8717;53.588;10.176;2022-10-17T10:12:17;4.87;;;2.07;;
17201;SDS011;8717;53.588;10.176;2022-10-17T10:14:47;6.88;;;2.25;;
17201;SDS011;8717;53.588;10.176;2022-10-17T10:17:24;2.80;;;2.22;;
17201;SDS011;8717;53.588;10.176;2022-10-17T10:19:53;2.38;;;1.98;;
17201;SDS011;8717;53.588;10.176;2022-10-17T10:22:20;3.58;;;1.90;;
17201;SDS011;8717;53.588;10.176;2022-10-17T10:24:56;4.93;;;1.88;;
17201;SDS011;8717;53.588;10.176;2022-10-17T10:27:32;3.05;;;2.05;;
17201;SDS011;8717;53.588;10.176;2022-10-17T10:30:01;4.40;;;1.83;;
17201;SDS011;8717;53.588;10.176;2022-10-17T10:32:30;3.85;;;2.17;;
17201;SDS011;8717;53.588;10.176;2022-10-17T10:34:59;3.22;;;2.08;;
17201;SDS011;8717;53.588;10.176;2022-10-17T10:37:28;4.63;;;2.08;;
17201;SDS011;8717;53.588;10.176;2022-10-17T10:40:00;3.47;;;2.22;;
17201;SDS011;8717;53.588;10.176;2022-10-17T10:42:29;6.95;;;2.35;;
17201;SDS011;8717;53.588;10.176;2022-10-17T10:44:59;4.05;;;2.17;;
17201;SDS011;8717;53.588;10.176;2022-10-17T10:47:37;5.13;;;2.28;;
17201;SDS011;8717;53.588;10.176;2022-10-17T10:50:08;4.28;;;2.03;;
17201;SDS011;8717;53.588;10.176;2022-10-17T10:52:47;6.45;;;2.38;;
17201;SDS011;8717;53.588;10.176;2022-10-17T10:55:22;5.03;;;2.38;;
17201;SDS011;8717;53.588;10.176;2022-10-17T10:57:52;4.47;;;2.30;;
17201;SDS011;8717;53.588;10.176;2022-10-17T11:00:24;5.03;;;2.55;;
17201;SDS011;8717;53.588;10.176;2022-10-17T11:02:54;4.60;;;2.33;;
17201;SDS011;8717;53.588;10.176;2022-10-17T11:05:31;3.47;;;2.00;;
17201;SDS011;8717;53.588;10.176;2022-10-17T11:08:05;2.60;;;2.05;;
17201;SDS011;8717;53.588;10.176;2022-10-17T11:10:41;4.75;;;2.33;;
17201;SDS011;8717;53.588;10.176;2022-10-17T11:13:14;6.07;;;2.33;;
17201;SDS011;8717;53.588;10.176;2022-10-17T11:15:46;4.82;;;2.58;;
17201;SDS011;8717;53.588;10.176;2022-10-17T11:18:19;4.60;;;2.60;;
17201;SDS011;8717;53.588;10.176;2022-10-17T11:20:50;4.77;;;2.67;;
17201;SDS011;8717;53.588;10.176;2022-10-17T11:23:22;8.98;;;2.88;;
17201;SDS011;8717;53.588;10.176;2022-10-17T11:25:53;3.13;;;2.40;;
17201;SDS011;8717;53.588;10.176;2022-10-17T11:28:24;3.95;;;2.10;;
17201;SDS011;8717;53.588;10.176;2022-10-17T11:30:54;5.30;;;2.67;;
17201;SDS011;8717;53.588;10.176;2022-10-17T11:33:26;6.78;;;3.17;;
17201;SDS011;8717;53.588;10.176;2022-10-17T11:35:56;4.60;;;2.20;;
17201;SDS011;8717;53.588;10.176;2022-10-17T11:38:34;4.57;;;2.75;;
17201;SDS011;8717;53.588;10.176;2022-10-17T11:41:05;4.55;;;2.67;;
17201;SDS011;8717;53.588;10.176;2022-10-17T11:43:37;4.35;;;2.45;;
17201;SDS011;8717;53.588;10.176;2022-10-17T11:46:11;4.90;;;2.50;;
17201;SDS011;8717;53.588;10.176;2022-10-17T11:48:41;4.78;;;2.55;;
17201;SDS011;8717;53.588;10.176;2022-10-17T11:51:14;4.28;;;2.80;;
17201;SDS011;8717;53.588;10.176;2022-10-17T11:53:44;5.97;;;2.42;;
17201;SDS011;8717;53.588;10.176;2022-10-17T11:56:13;6.30;;;2.60;;
17201;SDS011;8717;53.588;10.176;2022-10-17T11:58:45;5.13;;;2.70;;
17201;SDS011;8717;53.588;10.176;2022-10-17T12:01:20;5.47;;;3.00;;
17201;SDS011;8717;53.588;10.176;2022-10-17T12:04:17;6.75;;;2.78;;
17201;SDS011;8717;53.588;10.176;2022-10-17T12:06:52;6.45;;;2.67;;
17201;SDS011;8717;53.588;10.176;2022-10-17T12:09:26;6.72;;;2.92;;
17201;SDS011;8717;53.588;10.176;2022-10-17T12:12:04;6.90;;;3.00;;
17201;SDS011;8717;53.588;10.176;2022-10-17T12:14:36;6.28;;;2.92;;
17201;SDS011;8717;53.588;10.176;2022-10-17T12:17:28;9.18;;;3.35;;
17201;SDS011;8717;53.588;10.176;2022-10-17T12:22:53;7.45;;;3.38;;
17201;SDS011;8717;53.588;10.176;2022-10-17T12:25:22;4.07;;;3.60;;
17201;SDS011;8717;53.588;10.176;2022-10-17T12:28:01;5.43;;;3.72;;
17201;SDS011;8717;53.588;10.176;2022-10-17T12:30:35;5.68;;;3.58;;
17201;SDS011;8717;53.588;10.176;2022-10-17T12:33:04;4.88;;;3.58;;
17201;SDS011;8717;53.588;10.176;2022-10-17T12:35:46;5.00;;;3.23;;
17201;SDS011;8717;53.588;10.176;2022-10-17T12:38:18;4.60;;;2.87;;
17201;SDS011;8717;53.588;10.176;2022-10-17T12:40:47;3.80;;;3.10;;
17201;SDS011;8717;53.588;10.176;2022-10-17T12:55:11;3.33;;;2.83;;
17201;SDS011;8717;53.588;10.176;2022-10-17T12:57:42;4.15;;;2.95;;
17201;SDS011;8717;53.588;10.176;2022-10-17T13:00:19;6.20;;;2.85;;
17201;SDS011;8717;53.588;10.176;2022-10-17T13:02:49;10.07;;;3.20;;
17201;SDS011;8717;53.588;10.176;2022-10-17T13:05:24;6.60;;;3.70;;
17201;SDS011;8717;53.588;10.176;2022-10-17T13:07:53;4.97;;;3.20;;
17201;SDS011;8717;53.588;10.176;2022-10-17T13:10:22;3.80;;;2.77;;
17201;SDS011;8717;53.588;10.176;2022-10-17T13:12:52;6.00;;;3.20;;
17201;SDS011;8717;53.588;10.176;2022-10-17T13:15:27;5.80;;;3.50;;
17201;SDS011;8717;53.588;10.176;2022-10-17T13:17:55;6.07;;;2.88;;
17201;SDS011;8717;53.588;10.176;2022-10-17T13:20:25;7.28;;;3.42;;
17201;SDS011;8717;53.588;10.176;2022-10-17T13:22:53;9.50;;;4.40;;
17201;SDS011;8717;53.588;10.176;2022-10-17T13:25:22;11.20;;;4.63;;
17201;SDS011;8717;53.588;10.176;2022-10-17T13:27:50;24.37;;;6.93;;
17201;SDS011;8717;53.588;10.176;2022-10-17T13:30:28;9.33;;;5.43;;
17201;SDS011;8717;53.588;10.176;2022-10-17T13:32:56;8.97;;;5.90;;
17201;SDS011;8717;53.588;10.176;2022-10-17T13:35:26;6.97;;;5.30;;
17201;SDS011;8717;53.588;10.176;2022-10-17T13:37:54;11.40;;;7.00;;
17201;SDS011;8717;53.588;10.176;2022-10-17T13:40:22;7.90;;;7.10;;
17201;SDS011;8717;53.588;10.176;2022-10-17T13:42:51;8.97;;;6.37;;
17201;SDS011;8717;53.588;10.176;2022-10-17T13:45:21;11.07;;;7.00;;
17201;SDS011;8717;53.588;10.176;2022-10-17T13:47:54;9.20;;;6.77;;
17201;SDS011;8717;53.588;10.176;2022-10-17T13:50:23;9.53;;;7.27;;
17201;SDS011;8717;53.588;10.176;2022-10-17T13:55:50;8.50;;;6.80;;
17201;SDS011;8717;53.588;10.176;2022-10-17T13:58:25;10.90;;;7.27;;
17201;SDS011;8717;53.588;10.176;2022-10-17T14:00:55;9.33;;;6.83;;
17201;SDS011;8717;53.588;10.176;2022-10-17T14:03:22;12.83;;;8.10;;
17201;SDS011;8717;53.588;10.176;2022-10-17T14:08:46;9.60;;;7.03;;
17201;SDS011;8717;53.588;10.176;2022-10-17T14:11:18;11.57;;;7.70;;
17201;SDS011;8717;53.588;10.176;2022-10-17T14:13:49;10.77;;;7.93;;
17201;SDS011;8717;53.588;10.176;2022-10-17T14:16:18;10.03;;;7.67;;
17201;SDS011;8717;53.588;10.176;2022-10-17T14:18:47;12.73;;;7.97;;
17201;SDS011;8717;53.588;10.176;2022-10-17T14:21:21;16.43;;;8.90;;
17201;SDS011;8717;53.588;10.176;2022-10-17T14:23:49;15.30;;;10.20;;
17201;SDS011;8717;53.588;10.176;2022-10-17T14:26:18;15.03;;;11.70;;
17201;SDS011;8717;53.588;10.176;2022-10-17T14:28:47;13.13;;;8.63;;
17201;SDS011;8717;53.588;10.176;2022-10-17T14:31:22;9.60;;;7.80;;
17201;SDS011;8717;53.588;10.176;2022-10-17T14:33:53;10.83;;;7.47;;
17201;SDS011;8717;53.588;10.176;2022-10-17T14:36:28;11.97;;;8.97;;
17201;SDS011;8717;53.588;10.176;2022-10-17T14:39:00;13.70;;;8.13;;
17201;SDS011;8717;53.588;10.176;2022-10-17T14:41:28;12.43;;;8.17;;
17201;SDS011;8717;53.588;10.176;2022-10-17T14:43:56;13.20;;;8.93;;
17201;SDS011;8717;53.588;10.176;2022-10-17T14:46:25;11.83;;;9.03;;
17201;SDS011;8717;53.588;10.176;2022-10-17T14:48:53;11.90;;;8.10;;
17201;SDS011;8717;53.588;10.176;2022-10-17T14:51:22;11.53;;;8.20;;
17201;SDS011;8717;53.588;10.176;2022-10-17T14:54:00;10.57;;;8.47;;
17201;SDS011;8717;53.588;10.176;2022-10-17T14:56:33;12.40;;;8.07;;
17201;SDS011;8717;53.588;10.176;2022-10-17T14:59:04;16.83;;;10.20;;
17201;SDS011;8717;53.588;10.176;2022-10-17T15:01:31;13.67;;;9.13;;
17201;SDS011;8717;53.588;10.176;2022-10-17T15:03:59;10.27;;;8.03;;
17201;SDS011;8717;53.588;10.176;2022-10-17T15:06:26;11.37;;;9.37;;
17201;SDS011;8717;53.588;10.176;2022-10-17T15:08:54;13.97;;;8.50;;
17201;SDS011;8717;53.588;10.176;2022-10-17T15:11:22;10.57;;;8.23;;
17201;SDS011;8717;53.588;10.176;2022-10-17T15:13:49;13.00;;;8.47;;
17201;SDS011;8717;53.588;10.176;2022-10-17T15:16:17;11.80;;;8.30;;
17201;SDS011;8717;53.588;10.176;2022-10-17T15:18:45;10.70;;;8.13;;
17201;SDS011;8717;53.588;10.176;2022-10-17T15:21:12;8.97;;;8.07;;
17201;SDS011;8717;53.588;10.176;2022-10-17T15:23:40;11.63;;;8.27;;
17201;SDS011;8717;53.588;10.176;2022-10-17T15:26:10;11.60;;;8.80;;
17201;SDS011;8717;53.588;10.176;2022-10-17T15:28:40;12.80;;;8.70;;
17201;SDS011;8717;53.588;10.176;2022-10-17T15:31:09;10.20;;;8.70;;